Time;durP1;ratioP1;P1;durP2;ratioP2;P2;SDS_P1;SDS_P2;PMS_P1;PMS_P2;Temp;Humidity;BMP_temperature;BMP_pressure;BME280_temperature;BME280_humidity;BME280_pressure;Samples;Min_cycle;Max_cycle;Signal;HPM_P1;HPM_P2
2022/12/21 00:01:37;;;;;;;11.77;8.23;;;;;;;17.57;38.28;97032.63;4923693;29;20248;-90
2022/12/21 00:04:13;;;;;;;10.97;8.60;;;;;;;18.67;38.51;97242.69;4926728;29;20339;-90
2022/12/21 00:06:40;;;;;;;10.07;8.37;;;;;;;19.57;38.52;97415.78;4932568;29;20304;-91
2022/12/21 00:09:12;;;;;;;8.37;7.50;;;;;;;18.86;38.52;97290.03;4917448;29;20283;-91
2022/12/21 00:11:42;;;;;;;10.10;8.50;;;;;;;16.60;38.38;96972.91;4931001;29;20312;-90
2022/12/21 00:14:09;;;;;;;8.83;7.93;;;;;;;18.78;38.56;97357.63;4926243;29;20695;-90
2022/12/21 00:16:37;;;;;;;9.97;8.63;;;;;;;18.14;38.52;97187.28;4918077;29;20228;-90
2022/12/21 00:19:04;;;;;;;9.23;8.33;;;;;;;14.33;38.33;96537.34;4930025;29;20248;-90
2022/12/21 00:21:36;;;;;;;9.10;8.20;;;;;;;17.16;38.46;96981.06;4949729;29;20221;-91
2022/12/21 00:24:03;;;;;;;9.30;8.30;;;;;;;15.58;38.51;96728.88;4917965;29;20212;-90
2022/12/21 00:26:31;;;;;;;11.23;8.93;;;;;;;18.39;38.45;97175.47;4925975;29;20201;-90
2022/12/21 00:28:58;;;;;;;8.73;7.80;;;;;;;16.71;38.54;96877.81;4915242;29;20228;-91
2022/12/21 00:31:29;;;;;;;9.70;8.60;;;;;;;19.07;38.18;97281.47;4934428;29;20297;-91
2022/12/21 00:33:57;;;;;;;10.33;8.70;;;;;;;19.12;38.49;97295.25;4928959;29;20206;-91
2022/12/21 00:36:26;;;;;;;8.97;8.07;;;;;;;19.26;38.54;97311.88;4927133;29;20204;-90
2022/12/21 00:38:56;;;;;;;9.77;8.77;;;;;;;18.74;38.71;97214.09;4923972;29;20307;-90
2022/12/21 00:41:23;;;;;;;10.43;8.87;;;;;;;16.90;38.66;96925.91;4923346;29;20705;-90
2022/12/21 00:43:53;;;;;;;10.17;8.53;;;;;;;14.23;38.49;96535.25;4917749;29;20201;-91
2022/12/21 00:46:30;;;;;;;9.00;8.10;;;;;;;17.14;38.61;96939.53;4926177;29;20215;-90
2022/12/21 00:49:04;;;;;;;9.37;8.47;;;;;;;19.71;38.92;97412.03;4929452;29;20216;-88
2022/12/21 00:51:33;;;;;;;8.80;7.90;;;;;;;19.98;38.72;97454.66;4908765;29;20233;-90
2022/12/21 00:54:00;;;;;;;9.50;8.07;;;;;;;18.85;38.82;97327.34;4901120;29;20669;-91
2022/12/21 00:56:40;;;;;;;9.27;8.27;;;;;;;12.84;38.59;96302.88;4920459;29;20205;-90
2022/12/21 00:59:06;;;;;;;9.03;7.97;;;;;;;19.98;38.96;97499.69;4912015;29;20225;-90
2022/12/21 01:01:33;;;;;;;7.90;7.10;;;;;;;15.87;38.71;96802.66;4924303;29;20592;-91
2022/12/21 01:04:02;;;;;;;9.00;7.87;;;;;;;15.81;38.75;96826.91;4927976;29;20580;-90
2022/12/21 01:06:31;;;;;;;8.63;7.50;;;;;;;19.42;38.48;97393.16;4915934;29;20287;-90
2022/12/21 01:08:58;;;;;;;9.87;8.47;;;;;;;19.79;38.47;97465.03;4921759;29;20284;-90
2022/12/21 01:11:25;;;;;;;10.07;8.47;;;;;;;18.14;38.35;97174.56;4909431;29;20274;-90
2022/12/21 01:13:53;;;;;;;9.13;8.20;;;;;;;17.62;38.65;97099.69;4928839;29;20206;-90
2022/12/21 01:16:25;;;;;;;9.77;8.23;;;;;;;18.64;38.74;97275.66;4918293;29;20200;-90
2022/12/21 01:18:52;;;;;;;9.70;8.70;;;;;;;19.98;38.58;97505.66;4926370;29;20229;-90
2022/12/21 01:21:20;;;;;;;8.93;8.03;;;;;;;19.38;38.65;97393.88;4920362;29;20246;-88
2022/12/21 01:23:48;;;;;;;9.10;8.20;;;;;;;19.03;38.55;97329.69;4905675;29;20269;-91
2022/12/21 01:26:17;;;;;;;9.00;8.10;;;;;;;17.09;38.65;97012.97;4928411;29;20206;-90
2022/12/21 01:28:44;;;;;;;9.13;8.13;;;;;;;18.75;38.79;97274.38;4930019;29;20205;-90
2022/12/21 01:31:13;;;;;;;10.43;8.43;;;;;;;16.42;38.86;96869.06;4933068;29;20608;-87
2022/12/21 01:33:43;;;;;;;10.87;9.13;;;;;;;17.45;38.77;97056.69;4916308;29;20197;-90
2022/12/21 01:36:12;;;;;;;8.40;7.53;;;;;;;13.12;38.38;96431.94;4922221;29;20670;-90
2022/12/21 01:38:40;;;;;;;9.03;8.13;;;;;;;15.99;38.64;96818.34;4930731;29;20209;-88
2022/12/21 01:41:11;;;;;;;8.90;8.00;;;;;;;14.17;38.77;96481.03;4930157;29;20233;-91
2022/12/21 01:44:08;;;;;;;8.97;8.07;;;;;;;19.96;38.77;97502.19;4915785;29;20664;-91
2022/12/21 01:46:38;;;;;;;9.33;8.00;;;;;;;19.10;38.75;97342.69;4882038;29;20211;-90
2022/12/21 01:49:17;;;;;;;9.03;8.13;;;;;;;15.65;38.94;96825.41;4922204;29;20228;-91
2022/12/21 01:51:46;;;;;;;10.33;8.60;;;;;;;18.67;38.61;97252.00;4931270;29;20225;-91
2022/12/21 01:54:19;;;;;;;8.80;7.90;;;;;;;15.09;38.76;96651.72;4914024;29;20288;-91
2022/12/21 01:56:50;;;;;;;10.00;8.40;;;;;;;17.54;38.62;97111.28;4905042;29;20215;-90
2022/12/21 01:59:22;;;;;;;9.83;8.33;;;;;;;17.54;38.58;97052.84;4907240;29;20225;-90
2022/12/21 02:01:50;;;;;;;9.80;8.03;;;;;;;13.88;38.81;96484.88;4931439;29;20205;-91
2022/12/21 02:04:17;;;;;;;9.37;8.37;;;;;;;14.66;38.69;96556.44;4925473;29;20312;-90
2022/12/21 02:06:45;;;;;;;9.27;8.37;;;;;;;19.56;38.77;97403.84;4923259;29;20240;-91
2022/12/21 02:09:13;;;;;;;8.63;7.67;;;;;;;19.08;38.72;97315.44;4917912;29;20205;-91
2022/12/21 02:11:42;;;;;;;8.93;8.03;;;;;;;19.96;39.33;97521.75;4917754;29;20222;-91
2022/12/21 02:14:29;;;;;;;9.23;7.93;;;;;;;19.25;38.85;97358.56;4921355;29;20204;-91
2022/12/21 02:17:14;;;;;;;9.07;8.07;;;;;;;19.11;38.99;97320.66;4907984;29;20253;-91
2022/12/21 02:20:18;;;;;;;9.33;8.33;;;;;;;19.96;38.90;97470.72;4917618;29;20697;-90
2022/12/21 02:23:28;;;;;;;8.93;7.90;;;;;;;19.96;38.95;97480.94;4931960;29;20240;-90
2022/12/21 02:26:32;;;;;;;8.67;7.77;;;;;;;19.73;38.68;97464.81;4927676;29;20213;-90
2022/12/21 02:29:36;;;;;;;8.67;7.77;;;;;;;19.96;38.96;97483.47;4910899;29;20552;-91
2022/12/21 02:32:27;;;;;;;8.77;7.43;;;;;;;18.58;38.87;97233.84;4925766;29;20205;-91
2022/12/21 02:34:56;;;;;;;8.67;7.40;;;;;;;19.75;39.03;97458.06;4926064;29;20229;-91
2022/12/21 02:37:29;;;;;;;8.30;7.40;;;;;;;19.65;38.99;97414.34;4929590;29;20212;-89
2022/12/21 02:40:11;;;;;;;8.57;7.67;;;;;;;19.92;38.98;97454.44;4911050;29;20228;-91
2022/12/21 02:46:26;;;;;;;9.63;8.57;;;;;;;19.96;38.62;97445.22;4910173;29;20233;-90
2022/12/21 02:49:05;;;;;;;9.07;8.17;;;;;;;18.53;38.75;97208.22;4923599;29;20301;-91
2022/12/21 02:51:39;;;;;;;8.97;8.07;;;;;;;18.17;38.74;97128.03;4917418;29;20578;-90
2022/12/21 02:54:08;;;;;;;9.53;8.43;;;;;;;19.21;38.81;97322.69;4914229;29;20223;-90
2022/12/21 02:56:34;;;;;;;9.60;8.40;;;;;;;12.70;39.30;96231.72;4919616;29;20216;-90
2022/12/21 02:59:04;;;;;;;9.40;7.80;;;;;;;15.87;38.90;96799.28;4922986;29;20206;-90
2022/12/21 03:02:09;;;;;;;8.93;8.03;;;;;;;16.85;38.75;96946.06;4919741;29;20220;-90
2022/12/21 03:04:36;;;;;;;9.23;8.23;;;;;;;18.20;38.34;97174.78;4923133;29;20206;-90
2022/12/21 03:07:19;;;;;;;9.63;8.63;;;;;;;13.52;39.37;96368.88;4918285;29;20205;-90
2022/12/21 03:10:01;;;;;;;10.37;8.60;;;;;;;17.38;38.79;97047.94;4921230;29;20245;-90
2022/12/21 03:12:29;;;;;;;9.60;8.43;;;;;;;17.19;38.83;96984.56;4921263;29;20384;-90
2022/12/21 03:15:18;;;;;;;9.60;8.37;;;;;;;19.94;39.03;97459.59;4939761;29;20662;-91
2022/12/21 03:18:06;;;;;;;9.17;8.17;;;;;;;17.85;38.77;97106.50;4929118;29;20336;-90
2022/12/21 03:20:41;;;;;;;8.93;8.03;;;;;;;16.37;39.06;96852.78;4917297;29;20250;-90
2022/12/21 03:23:17;;;;;;;9.43;8.33;;;;;;;17.73;39.00;97090.81;4915596;29;20209;-90
2022/12/21 03:25:46;;;;;;;10.03;8.70;;;;;;;19.30;38.90;97344.31;4918785;29;20657;-90
2022/12/21 03:28:18;;;;;;;8.90;8.00;;;;;;;15.07;39.02;96615.41;4926171;29;20205;-90
2022/12/21 03:30:46;;;;;;;9.30;8.40;;;;;;;18.58;38.98;97249.13;4936587;29;20228;-90
2022/12/21 03:33:15;;;;;;;8.97;8.07;;;;;;;19.93;38.90;97451.06;4921561;29;20656;-91
2022/12/21 03:35:46;;;;;;;8.90;8.00;;;;;;;16.12;39.01;96789.28;4911097;29;20743;-90
2022/12/21 03:38:25;;;;;;;8.63;7.73;;;;;;;18.77;38.97;97244.75;4908201;29;20226;-90
2022/12/21 03:40:55;;;;;;;10.67;8.87;;;;;;;19.04;38.71;97285.59;4908437;29;20288;-91
2022/12/21 03:43:30;;;;;;;9.50;8.23;;;;;;;19.01;38.98;97272.75;4917659;29;20236;-90
2022/12/21 03:45:59;;;;;;;9.37;8.27;;;;;;;16.85;38.79;96909.66;4936458;29;20571;-90
2022/12/21 03:48:47;;;;;;;9.53;8.60;;;;;;;19.72;38.60;97440.13;4925777;29;20197;-90
2022/12/21 03:51:21;;;;;;;9.00;8.07;;;;;;;18.12;38.92;97115.13;4936815;29;20709;-91
2022/12/21 03:53:52;;;;;;;9.83;8.43;;;;;;;18.38;39.24;97177.16;4911676;29;20210;-91
2022/12/21 03:56:30;;;;;;;8.47;7.50;;;;;;;17.04;39.05;96932.34;4920533;29;20198;-90
2022/12/21 03:59:03;;;;;;;8.60;7.70;;;;;;;16.01;38.73;96788.00;4922933;29;20292;-90
2022/12/21 04:01:48;;;;;;;9.23;8.10;;;;;;;18.41;39.00;97171.34;4919833;29;20231;-88
2022/12/21 04:04:21;;;;;;;8.50;7.67;;;;;;;19.93;39.13;97442.56;4922011;29;20740;-90
2022/12/21 04:06:48;;;;;;;9.13;8.00;;;;;;;17.40;39.10;97004.81;4948045;29;20248;-90
2022/12/21 04:09:15;;;;;;;9.33;8.20;;;;;;;17.24;39.08;96975.47;4921719;29;20294;-90
2022/12/21 04:14:27;;;;;;;9.03;7.90;;;;;;;18.67;38.92;97212.16;4925327;29;20687;-91
2022/12/21 04:16:53;;;;;;;9.27;8.27;;;;;;;17.84;39.11;97074.28;4929296;29;20205;-91
2022/12/21 04:28:07;;;;;;;9.47;8.00;;;;;;;16.46;39.21;96885.31;4916842;29;20204;-91
2022/12/21 04:28:09;;;;;;;9.13;8.10;;;;;;;19.94;39.18;97457.03;4927476;29;20288;-91
2022/12/21 04:30:58;;;;;;;9.10;8.17;;;;;;;18.61;38.76;97227.19;4933909;29;20221;-90
2022/12/21 04:33:25;;;;;;;9.47;8.40;;;;;;;19.54;39.11;97382.56;4909390;29;20266;-90
2022/12/21 04:38:40;;;;;;;8.83;7.93;;;;;;;17.84;39.09;97081.91;4920175;29;20673;-90
2022/12/21 04:41:10;;;;;;;8.80;7.90;;;;;;;16.57;39.21;96863.72;4925258;29;20230;-90
2022/12/21 04:43:40;;;;;;;10.30;8.47;;;;;;;16.40;39.07;96901.09;4922272;29;20209;-90
2022/12/21 04:46:09;;;;;;;8.83;7.50;;;;;;;13.47;39.08;96340.94;4929922;29;20256;-90
2022/12/21 04:48:36;;;;;;;8.57;7.60;;;;;;;18.92;39.33;97257.16;4935098;29;20291;-90
2022/12/21 04:51:11;;;;;;;9.23;8.10;;;;;;;12.61;39.13;96213.69;4931206;29;20233;-90
2022/12/21 04:53:45;;;;;;;8.97;7.53;;;;;;;12.91;39.12;96256.97;4944174;29;20204;-90
2022/12/21 04:56:12;;;;;;;9.50;7.77;;;;;;;13.68;39.11;96371.25;4927056;29;20204;-90
2022/12/21 04:58:41;;;;;;;9.23;8.03;;;;;;;17.77;38.59;97125.69;4919686;29;20292;-90
2022/12/21 05:01:15;;;;;;;9.00;8.07;;;;;;;15.51;39.18;96679.66;4925650;29;20590;-90
2022/12/21 05:03:44;;;;;;;9.73;8.30;;;;;;;17.84;38.96;97075.97;4920527;29;20661;-91
2022/12/21 05:06:14;;;;;;;9.40;7.87;;;;;;;18.72;39.12;97202.13;4914607;29;20201;-90
2022/12/21 05:08:41;;;;;;;8.53;7.63;;;;;;;18.73;39.13;97194.53;4932806;29;20205;-90
2022/12/21 05:11:22;;;;;;;9.23;8.10;;;;;;;15.28;39.14;96644.09;4913824;29;20630;-89
2022/12/21 05:13:49;;;;;;;9.63;8.13;;;;;;;17.16;39.22;96927.72;4931044;29;20200;-91
2022/12/21 05:16:18;;;;;;;9.00;8.10;;;;;;;12.79;39.12;96257.31;4918526;29;20197;-90
2022/12/21 05:18:50;;;;;;;9.13;8.17;;;;;;;16.53;39.27;96856.81;4927379;29;20197;-90
2022/12/21 05:21:18;;;;;;;10.37;8.53;;;;;;;18.95;39.11;97272.56;4922678;29;20231;-91
2022/12/21 05:23:45;;;;;;;9.57;8.37;;;;;;;18.45;39.07;97162.97;4928494;29;20292;-90
2022/12/21 05:26:12;;;;;;;9.50;8.00;;;;;;;19.28;39.31;97319.59;4907202;29;20201;-90
2022/12/21 05:28:45;;;;;;;9.60;8.23;;;;;;;18.79;39.17;97217.66;4924000;29;20214;-90
2022/12/21 05:31:21;;;;;;;9.07;7.83;;;;;;;17.31;39.14;96985.03;4908612;29;20221;-90
2022/12/21 05:33:54;;;;;;;9.23;7.70;;;;;;;15.47;39.38;96672.75;4931605;29;20276;-89
2022/12/21 05:36:21;;;;;;;9.20;8.10;;;;;;;17.72;39.24;97033.19;4922072;29;20264;-90
2022/12/21 05:38:47;;;;;;;8.87;7.97;;;;;;;15.98;39.18;96722.88;4898019;29;20212;-90
2022/12/21 05:41:15;;;;;;;8.73;7.83;;;;;;;16.63;39.08;96960.34;4926855;29;20232;-91
2022/12/21 05:43:41;;;;;;;9.00;8.03;;;;;;;17.56;39.12;97010.53;4925625;29;20205;-90
2022/12/21 05:46:10;;;;;;;8.73;7.83;;;;;;;17.70;39.29;97017.00;4898083;29;20224;-90
2022/12/21 05:48:37;;;;;;;9.50;8.50;;;;;;;17.64;39.26;97037.09;4919946;29;20201;-91
2022/12/21 05:51:08;;;;;;;8.57;7.67;;;;;;;19.46;39.03;97323.66;4916899;29;20225;-90
2022/12/21 05:53:35;;;;;;;9.30;8.00;;;;;;;19.47;39.08;97327.94;4926204;29;20208;-90
2022/12/21 05:56:02;;;;;;;8.97;8.07;;;;;;;19.96;38.97;97401.84;4939764;29;20205;-90
2022/12/21 05:58:28;;;;;;;8.70;7.80;;;;;;;19.37;38.96;97297.00;4926407;29;20208;-90
2022/12/21 06:00:55;;;;;;;10.13;7.83;;;;;;;18.74;38.96;97187.78;4917649;29;20706;-90
2022/12/21 06:03:22;;;;;;;8.83;7.93;;;;;;;19.10;39.14;97251.00;4913428;29;20201;-90
2022/12/21 06:05:48;;;;;;;9.07;7.70;;;;;;;19.98;39.19;97387.44;4912239;29;20225;-89
2022/12/21 06:08:15;;;;;;;10.40;8.30;;;;;;;18.75;39.32;97180.19;4923682;29;20197;-91
2022/12/21 06:10:41;;;;;;;12.37;10.53;;;;;;;18.81;38.83;97192.25;4932493;29;20225;-90
2022/12/21 06:13:08;;;;;;;15.67;12.00;;;;;;;19.20;38.43;97263.25;4914477;29;20292;-90
2022/12/21 06:15:35;;;;;;;20.20;14.07;;;;;;;19.39;38.28;97306.41;4930685;29;20295;-88
2022/12/21 06:18:01;;;;;;;23.73;17.07;;;;;;;19.00;37.69;97253.19;4913231;29;20209;-91
2022/12/21 06:20:31;;;;;;;24.13;18.77;;;;;;;19.10;37.06;97258.66;4895222;29;20229;-90
2022/12/21 06:22:57;;;;;;;28.03;19.17;;;;;;;19.01;36.84;97244.75;4928540;29;20709;-88
2022/12/21 06:25:24;;;;;;;28.57;20.73;;;;;;;19.24;36.01;97290.56;4912446;29;20237;-88
2022/12/21 06:27:50;;;;;;;29.00;20.93;;;;;;;19.32;36.19;97301.94;4933867;29;20201;-89
2022/12/21 06:30:17;;;;;;;29.37;21.17;;;;;;;19.41;35.21;97321.75;4925763;29;20651;-92
2022/12/21 06:32:44;;;;;;;32.80;20.67;;;;;;;19.16;35.18;97274.13;4911391;29;20236;-90
2022/12/21 06:35:10;;;;;;;31.00;21.27;;;;;;;18.89;36.04;97223.97;4940565;29;20223;-88
2022/12/21 06:37:37;;;;;;;30.37;23.03;;;;;;;19.18;35.50;97264.00;4922938;29;20578;-89
2022/12/21 06:40:04;;;;;;;29.67;21.37;;;;;;;19.33;35.67;97307.91;4916869;29;20217;-90
2022/12/21 06:42:31;;;;;;;33.30;21.30;;;;;;;19.18;35.74;97292.03;4929561;29;20201;-91
2022/12/21 06:44:57;;;;;;;29.63;20.57;;;;;;;19.27;35.91;97318.72;4902441;29;20833;-91
2022/12/21 06:47:24;;;;;;;30.27;21.03;;;;;;;19.56;36.04;97365.59;4911811;29;20198;-91
2022/12/21 06:49:50;;;;;;;29.03;19.53;;;;;;;19.60;36.31;97378.50;4915426;29;20315;-90
2022/12/21 06:52:20;;;;;;;28.13;19.30;;;;;;;19.28;36.75;97322.16;4927603;29;20257;-90
2022/12/21 06:54:46;;;;;;;27.23;18.80;;;;;;;19.55;36.59;97391.91;4908378;29;20244;-90
2022/12/21 06:57:13;;;;;;;29.43;19.13;;;;;;;19.13;36.48;97298.66;4917366;29;20205;-88
2022/12/21 06:59:39;;;;;;;24.53;17.83;;;;;;;19.44;36.74;97355.88;4915861;29;20303;-89
2022/12/21 07:02:07;;;;;;;25.20;17.10;;;;;;;18.90;37.01;97264.75;4899793;29;20291;-89
2022/12/21 07:04:34;;;;;;;24.83;17.03;;;;;;;18.95;37.32;97292.91;4915291;29;20244;-90
2022/12/21 07:07:00;;;;;;;23.80;16.47;;;;;;;18.79;37.12;97242.25;4919978;29;20282;-89
2022/12/21 07:09:27;;;;;;;23.93;16.63;;;;;;;19.13;37.10;97301.22;4928233;29;20237;-90
2022/12/21 07:11:53;;;;;;;22.63;16.87;;;;;;;18.95;37.81;97281.03;4927376;29;20711;-89
2022/12/21 07:14:20;;;;;;;21.67;15.67;;;;;;;19.43;37.51;97351.59;4920111;29;20237;-89
2022/12/21 07:16:46;;;;;;;21.17;15.47;;;;;;;19.30;37.84;97334.13;4925271;29;20236;-90
2022/12/21 07:19:13;;;;;;;18.53;14.23;;;;;;;19.19;37.78;97320.09;4932059;29;20232;-90
2022/12/21 07:21:40;;;;;;;21.90;13.93;;;;;;;19.44;37.48;97352.44;4923778;29;20312;-89
2022/12/21 07:24:07;;;;;;;22.20;15.30;;;;;;;19.19;37.62;97324.34;4930779;29;20291;-90
2022/12/21 07:26:33;;;;;;;20.27;14.00;;;;;;;18.78;37.76;97245.63;4911501;29;20213;-91
2022/12/21 07:29:00;;;;;;;17.63;14.00;;;;;;;19.54;38.08;97393.59;4928990;29;20240;-91
2022/12/21 07:31:27;;;;;;;20.17;15.07;;;;;;;18.53;37.27;97203.16;4928111;29;20221;-91
2022/12/21 07:33:54;;;;;;;19.33;14.30;;;;;;;19.10;37.70;97308.75;4931879;29;20264;-91
2022/12/21 07:36:21;;;;;;;26.97;19.27;;;;;;;19.04;36.79;97289.00;4925740;29;20728;-91
2022/12/21 07:38:47;;;;;;;25.50;19.50;;;;;;;19.23;36.04;97321.97;4900612;29;20268;-91
2022/12/21 07:41:15;;;;;;;25.53;19.70;;;;;;;19.50;36.30;97375.59;4914992;29;20231;-89
2022/12/21 07:43:41;;;;;;;26.63;18.67;;;;;;;19.42;36.49;97377.88;4924051;29;20209;-91
2022/12/21 07:46:08;;;;;;;26.37;19.10;;;;;;;19.14;36.93;97333.50;4912766;29;20205;-91
2022/12/21 07:48:35;;;;;;;24.70;17.77;;;;;;;19.41;36.82;97367.63;4911284;29;20722;-90
2022/12/21 07:51:02;;;;;;;26.27;18.17;;;;;;;18.42;37.33;97194.28;4903750;29;20312;-91
2022/12/21 07:53:28;;;;;;;24.90;17.90;;;;;;;18.55;37.39;97215.91;4916627;29;20757;-89
2022/12/21 07:56:03;;;;;;;22.30;16.80;;;;;;;18.94;37.29;97286.06;4915266;29;20748;-91
2022/12/21 07:58:29;;;;;;;24.17;16.30;;;;;;;18.37;36.86;97187.25;4915935;29;20213;-91
2022/12/21 08:01:05;;;;;;;22.03;16.07;;;;;;;19.12;37.59;97312.19;4918475;29;20233;-91
2022/12/21 08:03:33;;;;;;;20.73;15.00;;;;;;;19.55;37.73;97395.34;4917621;29;20208;-90
2022/12/21 08:06:00;;;;;;;18.20;14.33;;;;;;;19.12;37.57;97313.06;4907567;29;20320;-90
2022/12/21 08:08:27;;;;;;;20.00;14.80;;;;;;;19.29;37.81;97349.34;4915997;29;20201;-91
2022/12/21 08:10:53;;;;;;;20.73;15.17;;;;;;;18.69;37.44;97240.19;4909414;29;20763;-88
2022/12/21 08:13:20;;;;;;;18.17;13.83;;;;;;;19.29;37.58;97336.63;4924330;29;20605;-91
2022/12/21 08:15:47;;;;;;;18.03;14.23;;;;;;;19.43;37.57;97366.00;4918290;29;20209;-91
2022/12/21 08:18:13;;;;;;;16.97;13.40;;;;;;;19.22;37.17;97329.56;4913920;29;20205;-91
2022/12/21 08:20:43;;;;;;;19.53;13.33;;;;;;;19.26;37.65;97336.47;4891818;29;20298;-91
2022/12/21 08:23:09;;;;;;;18.53;13.63;;;;;;;18.94;37.50;97280.97;4930727;29;20205;-91
2022/12/21 08:25:39;;;;;;;16.27;13.37;;;;;;;19.14;37.46;97297.84;4930425;29;20205;-90
2022/12/21 08:28:06;;;;;;;16.43;12.27;;;;;;;19.87;37.53;97421.94;4917669;29;20686;-91
2022/12/21 08:30:33;;;;;;;15.90;12.17;;;;;;;19.65;37.87;97388.88;4916203;29;20221;-91
2022/12/21 08:32:59;;;;;;;16.57;12.30;;;;;;;19.87;37.76;97433.00;4918397;29;20216;-91
2022/12/21 08:35:28;;;;;;;15.40;11.47;;;;;;;19.21;37.91;97308.28;4915683;29;20600;-91
2022/12/21 08:37:55;;;;;;;16.53;11.97;;;;;;;18.53;37.89;97182.78;4928420;29;20680;-91
2022/12/21 08:40:21;;;;;;;14.17;11.87;;;;;;;19.51;38.01;97354.41;4928681;29;20233;-91
2022/12/21 08:42:48;;;;;;;13.67;12.03;;;;;;;19.28;37.88;97317.06;4911080;29;21392;-91
2022/12/21 08:45:14;;;;;;;13.20;10.47;;;;;;;19.72;38.00;97388.28;4914101;29;20203;-90
2022/12/21 08:47:41;;;;;;;13.73;10.63;;;;;;;18.82;38.23;97233.06;4929745;29;20206;-91
2022/12/21 08:50:08;;;;;;;17.70;11.57;;;;;;;19.03;38.18;97286.41;4914669;29;20265;-90
2022/12/21 08:52:34;;;;;;;13.63;10.80;;;;;;;19.88;37.74;97416.03;4909268;29;20935;-92
2022/12/21 08:55:01;;;;;;;13.13;10.30;;;;;;;19.79;37.74;97396.19;4924320;29;20221;-91
2022/12/21 08:57:27;;;;;;;14.03;10.93;;;;;;;19.91;38.36;97403.38;4915526;29;20236;-91
2022/12/21 08:59:54;;;;;;;15.67;11.93;;;;;;;19.46;38.16;97355.91;4928675;29;20304;-91
2022/12/21 09:02:21;;;;;;;20.60;15.97;;;;;;;19.27;37.49;97287.31;4909583;29;20228;-90
2022/12/21 09:04:47;;;;;;;29.60;19.80;;;;;;;19.63;36.47;97381.16;4910831;29;20661;-89
2022/12/21 09:07:14;;;;;;;28.93;20.47;;;;;;;19.02;36.07;97251.56;4921413;29;20284;-89
2022/12/21 09:09:43;;;;;;;27.67;20.03;;;;;;;19.57;36.48;97364.81;4928690;29;20595;-90
2022/12/21 09:12:09;;;;;;;25.80;18.77;;;;;;;19.51;36.95;97351.84;4922669;29;20197;-91
2022/12/21 09:14:36;;;;;;;24.73;18.50;;;;;;;18.86;36.96;97246.75;4926648;29;20214;-91
2022/12/21 09:17:02;;;;;;;26.00;17.33;;;;;;;18.96;36.81;97264.09;4902057;29;20197;-90
2022/12/21 09:19:29;;;;;;;24.57;16.40;;;;;;;19.84;36.95;97420.13;4911325;29;20202;-88
2022/12/21 09:21:55;;;;;;;24.97;16.80;;;;;;;19.16;37.42;97311.50;4935018;29;20217;-89
2022/12/21 09:24:22;;;;;;;20.97;15.87;;;;;;;19.03;36.86;97286.41;4904939;29;20662;-90
2022/12/21 09:26:49;;;;;;;26.23;16.07;;;;;;;18.90;37.18;97267.28;4928275;29;20292;-89
2022/12/21 09:29:16;;;;;;;20.77;15.00;;;;;;;19.23;37.53;97319.41;4905531;29;20244;-90
2022/12/21 09:31:42;;;;;;;20.43;14.53;;;;;;;19.27;37.83;97363.75;4919098;29;20228;-90
2022/12/21 09:34:09;;;;;;;22.07;15.10;;;;;;;18.98;37.39;97275.22;4919856;29;20296;-90
2022/12/21 09:36:36;;;;;;;19.20;14.50;;;;;;;19.06;37.11;97283.97;4933481;29;20205;-90
2022/12/21 09:39:22;;;;;;;18.70;14.37;;;;;;;18.55;37.50;97193.03;4934540;29;20757;-90
2022/12/21 09:42:13;;;;;;;18.33;13.97;;;;;;;19.85;37.53;97418.47;4909256;29;20731;-89
2022/12/21 09:44:46;;;;;;;18.30;13.73;;;;;;;19.85;37.58;97406.59;4929545;29;20213;-90
2022/12/21 09:47:19;;;;;;;18.00;13.47;;;;;;;18.14;37.93;97121.16;4930266;29;20660;-89
2022/12/21 09:49:53;;;;;;;17.70;13.30;;;;;;;19.86;37.91;97410.00;4900585;29;20240;-87
2022/12/21 09:52:38;;;;;;;16.47;12.97;;;;;;;18.85;37.85;97219.56;4953059;23;20224;-89
2022/12/21 09:55:08;;;;;;;16.87;12.93;;;;;;;18.76;38.14;97214.13;4935787;29;20666;-86
2022/12/21 09:57:35;;;;;;;21.53;11.87;;;;;;;19.86;38.04;97415.09;4925096;29;20276;-86
2022/12/21 10:00:07;;;;;;;15.37;11.83;;;;;;;18.45;38.06;97143.50;4925125;29;20219;-88
2022/12/21 10:02:41;;;;;;;13.43;11.57;;;;;;;18.72;38.11;97189.41;4928833;29;20270;-89
2022/12/21 10:05:26;;;;;;;15.00;11.83;;;;;;;19.87;37.90;97397.28;4916877;29;20640;-86
2022/12/21 10:08:26;;;;;;;14.03;11.30;;;;;;;19.89;37.80;97389.69;4935026;29;20639;-86
2022/12/21 10:11:06;;;;;;;15.03;11.67;;;;;;;19.08;37.60;97284.88;4950480;29;20205;-86
2022/12/21 10:13:39;;;;;;;15.07;11.60;;;;;;;19.89;38.05;97388.03;4919909;29;20453;-86
2022/12/21 10:16:24;;;;;;;13.83;10.60;;;;;;;19.90;38.01;97387.19;4945795;29;20700;-86
2022/12/21 10:19:34;;;;;;;14.33;10.90;;;;;;;19.91;38.24;97393.16;4929979;29;20241;-86
2022/12/21 10:22:08;;;;;;;11.87;10.43;;;;;;;19.30;38.24;97284.88;4933257;29;20225;-86
2022/12/21 10:24:56;;;;;;;14.27;10.80;;;;;;;19.91;38.13;97385.53;4914950;29;20255;-86
2022/12/21 10:27:49;;;;;;;13.87;10.47;;;;;;;19.91;38.27;97390.63;4932748;28;20205;-87
2022/12/21 10:30:16;;;;;;;12.10;9.63;;;;;;;16.86;38.38;96870.75;4941423;29;20573;-86
2022/12/21 10:32:45;;;;;;;15.00;10.43;;;;;;;19.83;38.30;97408.22;4935228;29;20275;-86
2022/12/21 10:35:22;;;;;;;11.97;10.00;;;;;;;19.91;38.19;97391.50;4915068;29;20216;-84
2022/12/21 10:37:50;;;;;;;13.17;10.13;;;;;;;18.82;38.34;97194.88;4929844;29;20687;-86
2022/12/21 10:40:18;;;;;;;11.80;9.80;;;;;;;19.91;38.32;97373.66;4905257;29;20211;-87
2022/12/21 10:42:45;;;;;;;12.10;9.63;;;;;;;16.77;38.41;96860.28;4933293;29;20271;-86
2022/12/21 10:45:13;;;;;;;11.07;9.20;;;;;;;19.32;38.20;97279.00;4892040;29;20236;-86
2022/12/21 10:47:45;;;;;;;13.13;9.00;;;;;;;19.94;38.29;97380.53;4934947;29;20205;-85
2022/12/21 10:50:15;;;;;;;10.63;9.07;;;;;;;19.78;38.31;97345.97;4929838;29;20209;-85
2022/12/21 10:52:48;;;;;;;11.07;9.73;;;;;;;19.71;38.20;97344.06;4926198;29;20241;-86
2022/12/21 10:55:18;;;;;;;11.70;9.53;;;;;;;19.94;38.44;97370.31;4912872;29;20205;-86
2022/12/21 10:57:49;;;;;;;11.13;9.07;;;;;;;18.03;38.42;97032.59;4935437;29;20213;-85
2022/12/21 11:00:37;;;;;;;11.47;9.27;;;;;;;19.96;38.46;97368.69;4917786;29;20291;-85
2022/12/21 11:03:34;;;;;;;12.33;9.67;;;;;;;17.47;38.55;96930.63;4932106;29;20235;-87
2022/12/21 11:06:13;;;;;;;11.63;9.10;;;;;;;19.37;38.38;97256.22;4910613;29;20209;-87
2022/12/21 11:08:49;;;;;;;11.67;9.20;;;;;;;19.41;38.60;97263.16;4910288;29;20211;-86
2022/12/21 11:11:29;;;;;;;9.90;8.20;;;;;;;19.96;38.39;97363.59;4916782;29;20204;-85
2022/12/21 11:14:13;;;;;;;12.57;9.57;;;;;;;17.23;38.43;96894.16;4922540;29;20255;-86
2022/12/21 11:16:40;;;;;;;11.60;9.40;;;;;;;19.60;38.56;97302.03;4922414;29;20377;-86
2022/12/21 11:19:11;;;;;;;15.33;12.60;;;;;;;18.49;38.42;97117.34;4917961;29;20230;-86
2022/12/21 11:21:50;;;;;;;23.63;18.60;;;;;;;19.95;37.95;97362.72;4898913;29;20313;-86
2022/12/21 11:24:24;;;;;;;25.97;19.97;;;;;;;19.94;37.66;97367.78;4939169;29;20221;-86
2022/12/21 11:27:02;;;;;;;25.73;18.23;;;;;;;16.14;37.73;96706.59;4920079;29;20677;-85
2022/12/21 11:29:36;;;;;;;24.07;18.53;;;;;;;19.90;37.85;97348.94;4923950;29;20215;-84
2022/12/21 11:32:07;;;;;;;25.40;19.00;;;;;;;17.15;37.96;96878.66;4922662;29;20255;-87
2022/12/21 11:34:39;;;;;;;21.90;16.63;;;;;;;19.88;38.51;97347.16;4940845;29;20275;-84
2022/12/21 11:37:20;;;;;;;23.07;17.37;;;;;;;19.53;38.76;97317.06;4937065;29;20207;-85
2022/12/21 11:39:47;;;;;;;19.30;15.57;;;;;;;19.50;38.78;97287.25;4905998;29;20213;-87
2022/12/21 11:42:18;;;;;;;21.90;16.50;;;;;;;17.87;38.83;97003.22;4923229;29;20712;-86
2022/12/21 11:44:44;;;;;;;21.83;15.73;;;;;;;17.65;38.98;96954.97;4913345;29;20248;-85
2022/12/21 11:47:37;;;;;;;20.97;16.60;;;;;;;19.86;39.15;97339.47;4919274;29;20214;-88
2022/12/21 11:50:07;;;;;;;21.10;15.43;;;;;;;19.87;39.25;97336.09;4932145;29;20216;-86
2022/12/21 11:52:50;;;;;;;19.87;15.63;;;;;;;19.87;39.19;97360.75;4928771;29;20237;-86
2022/12/21 11:55:30;;;;;;;21.90;14.63;;;;;;;13.93;39.34;96303.25;4924608;29;20215;-86
2022/12/21 11:58:29;;;;;;;19.57;14.70;;;;;;;17.03;39.78;96859.56;4924717;29;20764;-86
2022/12/21 12:01:09;;;;;;;17.87;14.37;;;;;;;19.23;39.45;97224.28;4907229;29;20217;-86